Time;durP1;ratioP1;P1;durP2;ratioP2;P2;SDS_P1;SDS_P2;PMS_P1;PMS_P2;Temp;Humidity;BMP_temperature;BMP_pressure;BME280_temperature;BME280_humidity;BME280_pressure;Samples;Min_cycle;Max_cycle;Signal;HPM_P1;HPM_P2
2023/10/10 00:01:44;;;;;;;26.13;11.67;;;14.40;99.90;;;;;;4973294;28;20205;-69
2023/10/10 00:04:13;;;;;;;24.90;10.90;;;14.40;99.90;;;;;;4972076;28;20202;-68
2023/10/10 00:06:40;;;;;;;23.97;11.57;;;14.40;99.90;;;;;;4973080;28;20209;-68
2023/10/10 00:09:10;;;;;;;28.17;12.87;;;14.30;99.90;;;;;;4973066;28;20193;-68
2023/10/10 00:11:47;;;;;;;27.63;11.07;;;14.30;99.90;;;;;;4973191;28;20217;-68
2023/10/10 00:14:19;;;;;;;27.67;11.80;;;14.20;99.90;;;;;;4973253;28;20192;-69
2023/10/10 00:16:54;;;;;;;26.47;11.37;;;14.20;99.90;;;;;;4972878;28;20244;-68
2023/10/10 00:19:29;;;;;;;31.20;12.90;;;14.10;99.90;;;;;;4971566;28;20181;-68
2023/10/10 00:21:56;;;;;;;31.97;13.83;;;14.10;99.90;;;;;;4973028;28;20668;-68
2023/10/10 00:24:31;;;;;;;30.60;13.17;;;14.10;99.90;;;;;;4972945;28;20213;-69
2023/10/10 00:27:12;;;;;;;37.53;14.83;;;14.10;99.90;;;;;;4972719;28;20186;-69
2023/10/10 00:29:42;;;;;;;30.67;12.87;;;14.00;99.90;;;;;;4972506;28;20205;-69
2023/10/10 00:32:17;;;;;;;27.03;13.57;;;13.90;99.90;;;;;;4971745;28;20182;-69
2023/10/10 00:34:48;;;;;;;29.17;13.23;;;13.90;99.90;;;;;;4972845;28;20272;-68
2023/10/10 00:37:25;;;;;;;30.20;12.70;;;13.90;99.90;;;;;;4971610;28;20202;-69
2023/10/10 00:39:54;;;;;;;24.57;11.00;;;13.90;99.90;;;;;;4972294;28;20248;-69
2023/10/10 00:42:21;;;;;;;36.10;15.03;;;13.80;99.90;;;;;;4986704;28;20276;-69
2023/10/10 00:44:47;;;;;;;28.40;12.57;;;13.80;99.90;;;;;;4991810;28;20641;-68
2023/10/10 00:47:26;;;;;;;30.57;13.70;;;13.70;99.90;;;;;;4991888;28;20637;-69
2023/10/10 00:49:51;;;;;;;32.13;13.30;;;13.70;99.90;;;;;;4990253;28;20195;-68
2023/10/10 00:52:17;;;;;;;47.67;16.50;;;13.60;99.90;;;;;;4991806;28;20185;-68
2023/10/10 00:54:44;;;;;;;39.90;15.77;;;13.60;99.90;;;;;;4990067;28;20268;-69
2023/10/10 00:57:14;;;;;;;31.27;13.83;;;13.60;99.90;;;;;;4978707;28;20202;-68
2023/10/10 00:59:44;;;;;;;33.00;13.47;;;13.50;99.90;;;;;;4987953;28;20181;-68
2023/10/10 01:02:16;;;;;;;33.50;13.43;;;13.50;99.90;;;;;;4975871;28;20268;-69
2023/10/10 01:04:49;;;;;;;28.53;12.33;;;13.50;99.90;;;;;;4997767;28;20221;-68
2023/10/10 01:07:21;;;;;;;31.20;13.33;;;13.40;99.90;;;;;;4990084;28;20220;-68
2023/10/10 01:12:22;;;;;;;29.63;11.70;;;13.30;99.90;;;;;;4991564;28;20223;-69
2023/10/10 01:14:54;;;;;;;36.50;14.73;;;13.30;99.90;;;;;;4991506;28;20184;-69
2023/10/10 01:17:20;;;;;;;33.23;14.87;;;13.20;99.90;;;;;;4991393;28;20300;-68
2023/10/10 01:19:46;;;;;;;34.83;14.73;;;13.20;99.90;;;;;;4991020;28;20185;-69
2023/10/10 01:22:22;;;;;;;32.07;13.80;;;13.20;99.90;;;;;;4978291;28;20205;-69
2023/10/10 01:24:53;;;;;;;32.23;14.43;;;13.20;99.90;;;;;;4981716;28;20180;-68
2023/10/10 01:27:21;;;;;;;33.50;14.70;;;13.10;99.90;;;;;;4976230;28;20260;-69
2023/10/10 01:30:02;;;;;;;36.03;15.37;;;13.10;99.90;;;;;;4979514;28;20212;-68
2023/10/10 01:32:29;;;;;;;32.37;15.43;;;13.10;99.90;;;;;;4971953;28;20177;-68
2023/10/10 01:34:54;;;;;;;38.77;16.47;;;13.00;99.90;;;;;;4971763;28;20186;-68
2023/10/10 01:37:27;;;;;;;36.80;15.43;;;13.00;99.90;;;;;;4971763;28;20252;-69
2023/10/10 01:39:55;;;;;;;32.40;14.13;;;13.00;99.90;;;;;;4971463;28;20670;-69
2023/10/10 01:42:37;;;;;;;37.83;15.57;;;13.00;99.90;;;;;;4971592;28;20182;-69
2023/10/10 01:45:10;;;;;;;36.83;16.00;;;13.00;99.90;;;;;;4975668;28;20185;-69
2023/10/10 01:47:39;;;;;;;40.13;15.97;;;12.90;99.90;;;;;;4974587;28;20213;-68
2023/10/10 01:50:12;;;;;;;46.83;17.17;;;12.90;99.90;;;;;;4983576;28;20176;-68
2023/10/10 01:52:43;;;;;;;43.07;17.13;;;12.90;99.90;;;;;;5004566;28;20181;-69
2023/10/10 01:55:10;;;;;;;40.90;16.17;;;12.80;99.90;;;;;;4979732;28;20186;-68
2023/10/10 01:57:35;;;;;;;32.73;15.47;;;12.80;99.90;;;;;;4971337;28;20209;-69
2023/10/10 02:00:19;;;;;;;32.50;14.67;;;12.80;99.90;;;;;;4971365;28;20193;-69
2023/10/10 02:02:45;;;;;;;40.57;15.90;;;12.70;99.90;;;;;;4988849;28;20201;-68
2023/10/10 02:05:13;;;;;;;39.00;15.03;;;12.70;99.90;;;;;;4990844;28;20178;-68
2023/10/10 02:07:41;;;;;;;33.60;14.60;;;12.70;99.90;;;;;;4991927;28;20303;-68
2023/10/10 02:10:13;;;;;;;32.27;14.27;;;12.70;99.90;;;;;;4979446;28;20185;-69
2023/10/10 02:12:45;;;;;;;37.90;15.73;;;12.60;99.90;;;;;;4977874;28;20260;-68
2023/10/10 02:15:12;;;;;;;34.80;15.17;;;12.70;99.90;;;;;;4975535;28;20756;-69
2023/10/10 02:17:42;;;;;;;29.90;13.00;;;12.70;99.90;;;;;;4975062;28;20288;-68
2023/10/10 02:22:51;;;;;;;34.00;13.13;;;12.60;99.90;;;;;;4983300;28;20262;-68
2023/10/10 02:27:56;;;;;;;28.57;13.47;;;12.60;99.90;;;;;;4974983;28;20251;-69
2023/10/10 02:30:35;;;;;;;31.20;14.40;;;12.60;99.90;;;;;;4974921;28;20662;-69
2023/10/10 02:35:56;;;;;;;32.73;13.50;;;12.50;99.90;;;;;;4974929;28;20240;-68
2023/10/10 02:38:36;;;;;;;32.47;14.73;;;12.50;99.90;;;;;;4974756;28;20694;-69
2023/10/10 02:41:21;;;;;;;33.87;15.13;;;12.50;99.90;;;;;;4974651;28;20712;-69
2023/10/10 02:46:33;;;;;;;33.90;15.33;;;12.50;99.90;;;;;;4994401;28;20199;-69
2023/10/10 02:49:02;;;;;;;30.43;14.37;;;12.40;99.90;;;;;;4982519;28;20416;-68
2023/10/10 02:51:27;;;;;;;41.47;15.07;;;12.40;99.90;;;;;;4981788;28;20177;-68
2023/10/10 02:53:53;;;;;;;35.10;13.23;;;12.40;99.90;;;;;;4986014;28;20186;-69
2023/10/10 02:56:20;;;;;;;32.33;14.03;;;12.30;99.90;;;;;;4988246;28;20192;-69
2023/10/10 02:58:48;;;;;;;28.27;12.80;;;12.30;99.90;;;;;;4982218;28;20625;-68
2023/10/10 03:03:59;;;;;;;31.10;14.33;;;12.30;99.90;;;;;;4977562;28;20346;-68
2023/10/10 03:06:28;;;;;;;30.83;13.37;;;12.30;99.90;;;;;;4993910;28;20688;-69
2023/10/10 03:09:14;;;;;;;28.17;13.07;;;12.20;99.90;;;;;;4977306;28;20202;-69
2023/10/10 03:11:53;;;;;;;31.33;13.23;;;12.20;99.90;;;;;;4985107;28;20648;-69
2023/10/10 03:14:29;;;;;;;35.40;14.40;;;12.20;99.90;;;;;;4988368;28;20196;-69
2023/10/10 03:17:05;;;;;;;34.70;12.93;;;12.10;99.90;;;;;;4985587;28;20272;-69
2023/10/10 03:19:41;;;;;;;40.43;16.13;;;12.10;99.90;;;;;;4985902;28;20207;-68
2023/10/10 03:25:04;;;;;;;42.73;16.77;;;12.10;99.90;;;;;;4977606;28;20306;-69
2023/10/10 03:33:08;;;;;;;30.80;13.23;;;12.00;99.90;;;;;;4993612;28;20196;-68
2023/10/10 03:35:59;;;;;;;25.67;11.60;;;12.00;99.90;;;;;;5007154;28;20173;-68
2023/10/10 05:23:29;;;;;;;24.13;11.03;;;11.90;99.90;;;;;;4980496;28;20720;-68
2023/10/10 05:25:13;;;;;;;33.37;14.70;;;11.40;99.90;;;;;;4991645;28;20220;-69
2023/10/10 05:27:42;;;;;;;35.03;15.27;;;11.40;99.90;;;;;;4990982;28;20193;-68
2023/10/10 05:30:39;;;;;;;32.53;13.83;;;11.40;99.90;;;;;;4990994;28;20712;-69
2023/10/10 05:33:06;;;;;;;30.77;14.77;;;11.40;99.90;;;;;;4990303;28;20177;-68
2023/10/10 05:35:33;;;;;;;40.00;14.33;;;11.40;99.90;;;;;;4991112;28;20661;-69
2023/10/10 05:38:00;;;;;;;34.80;13.63;;;11.40;99.90;;;;;;4998131;28;20204;-69
2023/10/10 05:40:26;;;;;;;29.17;13.13;;;11.40;99.90;;;;;;4984871;28;20272;-69
2023/10/10 05:42:52;;;;;;;29.23;13.03;;;11.40;99.90;;;;;;4972551;28;20229;-69
2023/10/10 05:45:20;;;;;;;30.40;13.30;;;11.40;99.90;;;;;;4991180;28;20204;-69
2023/10/10 05:47:49;;;;;;;29.67;13.20;;;11.40;99.90;;;;;;4981787;28;20205;-69
2023/10/10 05:50:16;;;;;;;29.13;13.33;;;11.50;99.90;;;;;;4984251;28;20243;-69
2023/10/10 05:52:43;;;;;;;28.80;12.93;;;11.40;99.90;;;;;;4981365;28;20629;-71
2023/10/10 05:55:12;;;;;;;33.77;13.27;;;11.50;99.90;;;;;;4971050;28;20181;-68
2023/10/10 05:57:39;;;;;;;32.63;13.83;;;11.50;99.90;;;;;;4979126;28;20209;-69
2023/10/10 06:00:10;;;;;;;35.83;14.00;;;11.50;99.90;;;;;;4990186;28;20657;-67
2023/10/10 06:02:37;;;;;;;31.40;14.50;;;11.50;99.90;;;;;;4982242;28;20283;-69
2023/10/10 06:05:04;;;;;;;34.60;15.13;;;11.50;99.90;;;;;;4982489;28;20180;-69
2023/10/10 06:07:31;;;;;;;36.43;15.00;;;11.50;99.90;;;;;;4975123;28;20681;-69
2023/10/10 06:09:58;;;;;;;38.23;15.73;;;11.50;99.90;;;;;;4978524;28;20190;-69
2023/10/10 06:12:26;;;;;;;40.60;16.20;;;11.60;99.90;;;;;;4972627;28;20189;-68
2023/10/10 06:14:54;;;;;;;37.23;16.20;;;11.60;99.90;;;;;;4988823;28;20196;-69
2023/10/10 06:17:21;;;;;;;34.20;16.27;;;11.70;99.90;;;;;;4976436;28;20659;-69
2023/10/10 06:19:49;;;;;;;40.67;17.00;;;11.70;99.90;;;;;;4979848;28;20180;-69
2023/10/10 06:22:15;;;;;;;38.33;17.97;;;11.70;99.90;;;;;;4980805;28;20178;-69
2023/10/10 06:24:41;;;;;;;35.57;15.10;;;11.70;99.90;;;;;;4990118;28;20181;-69
2023/10/10 06:27:09;;;;;;;38.80;16.83;;;11.80;99.90;;;;;;4978103;28;20634;-69
2023/10/10 06:29:38;;;;;;;38.23;15.73;;;11.90;99.90;;;;;;4978168;28;20177;-69
2023/10/10 06:32:03;;;;;;;40.40;16.40;;;11.90;99.90;;;;;;4971063;28;20619;-68
2023/10/10 06:34:34;;;;;;;34.27;15.60;;;12.00;99.90;;;;;;4985603;28;20261;-69
2023/10/10 06:37:07;;;;;;;43.73;17.20;;;12.10;99.90;;;;;;4978736;28;20201;-68
2023/10/10 06:39:54;;;;;;;49.33;17.90;;;12.10;99.90;;;;;;4985870;28;20192;-68
2023/10/10 06:42:27;;;;;;;47.03;17.77;;;12.20;99.90;;;;;;4984494;28;20277;-68
2023/10/10 06:44:53;;;;;;;54.00;20.07;;;12.30;99.90;;;;;;4980385;28;20205;-68
2023/10/10 06:47:19;;;;;;;54.77;18.53;;;12.40;99.90;;;;;;4989845;28;20307;-68
2023/10/10 06:49:53;;;;;;;56.00;20.63;;;12.40;99.90;;;;;;4972609;28;20261;-68
2023/10/10 06:52:19;;;;;;;61.27;21.93;;;12.50;99.90;;;;;;4970595;28;20178;-68
2023/10/10 06:54:54;;;;;;;58.47;22.23;;;12.50;99.90;;;;;;4982698;28;20256;-69
2023/10/10 06:57:21;;;;;;;69.33;24.17;;;12.60;99.90;;;;;;4988032;28;20211;-67
2023/10/10 06:59:48;;;;;;;74.97;24.73;;;12.70;99.90;;;;;;4981614;28;20663;-69
2023/10/10 07:02:20;;;;;;;74.80;24.70;;;12.70;99.90;;;;;;4974121;28;20224;-68
2023/10/10 07:04:52;;;;;;;67.57;25.07;;;12.80;99.90;;;;;;4982970;28;20197;-68
2023/10/10 07:07:19;;;;;;;70.03;25.00;;;12.90;99.90;;;;;;4993088;28;20212;-69
2023/10/10 07:09:45;;;;;;;68.30;25.73;;;13.00;99.90;;;;;;4984094;28;20190;-67
2023/10/10 07:12:10;;;;;;;62.10;24.47;;;13.00;99.90;;;;;;4974024;28;20256;-67
2023/10/10 07:14:53;;;;;;;81.93;30.03;;;13.10;99.90;;;;;;4982014;28;20189;-68
2023/10/10 07:17:26;;;;;;;74.27;25.67;;;13.20;99.90;;;;;;4973742;28;20201;-68
2023/10/10 07:22:34;;;;;;;71.90;24.57;;;13.30;99.90;;;;;;4973256;28;20284;-69
2023/10/10 07:25:07;;;;;;;63.47;23.60;;;13.50;99.90;;;;;;4973625;28;20178;-68
2023/10/10 07:27:35;;;;;;;68.93;23.80;;;13.50;99.90;;;;;;4988950;28;20201;-69
2023/10/10 07:30:17;;;;;;;67.37;24.47;;;13.50;99.90;;;;;;4980182;28;20615;-67
2023/10/10 07:32:50;;;;;;;69.73;24.73;;;13.60;99.90;;;;;;4982198;28;20192;-69
2023/10/10 07:35:16;;;;;;;62.50;22.20;;;13.70;99.90;;;;;;4992956;28;20271;-69
2023/10/10 07:37:43;;;;;;;70.00;24.60;;;13.70;99.90;;;;;;4984029;28;20201;-69
2023/10/10 07:42:49;;;;;;;65.27;24.57;;;13.90;99.90;;;;;;4972998;28;20233;-69
2023/10/10 07:45:15;;;;;;;70.00;27.43;;;14.00;99.90;;;;;;4973378;28;20668;-68
2023/10/10 07:50:26;;;;;;;64.43;24.23;;;14.30;99.90;;;;;;4978642;28;20710;-68
2023/10/10 07:52:55;;;;;;;58.23;23.10;;;14.30;99.90;;;;;;4980985;28;20185;-69
2023/10/10 07:55:22;;;;;;;57.57;21.93;;;14.50;99.90;;;;;;4981095;28;20193;-68
2023/10/10 07:58:01;;;;;;;55.40;21.87;;;14.70;99.90;;;;;;4982055;28;20216;-69
2023/10/10 08:00:38;;;;;;;59.33;23.50;;;14.90;99.90;;;;;;4985923;28;20268;-69
2023/10/10 08:03:06;;;;;;;48.87;21.20;;;15.10;99.90;;;;;;4972852;28;20209;-69
2023/10/10 08:05:32;;;;;;;50.77;20.80;;;15.40;99.90;;;;;;4972348;28;20589;-69
2023/10/10 08:08:04;;;;;;;59.07;22.33;;;15.60;99.90;;;;;;4971026;28;20320;-68
2023/10/10 08:10:37;;;;;;;49.90;21.87;;;15.90;99.90;;;;;;4980528;28;20229;-68
2023/10/10 08:13:10;;;;;;;47.70;20.63;;;16.00;99.90;;;;;;4983899;28;20244;-68
2023/10/10 08:15:50;;;;;;;47.47;20.63;;;16.10;99.90;;;;;;4976460;28;20178;-70
2023/10/10 08:23:27;;;;;;;46.37;19.33;;;17.10;99.90;;;;;;4972716;28;20205;-69
2023/10/10 08:25:53;;;;;;;47.40;20.37;;;17.40;99.90;;;;;;4990261;28;20189;-70
2023/10/10 08:28:21;;;;;;;44.30;19.03;;;17.70;99.90;;;;;;4991740;28;20556;-68
2023/10/10 08:30:48;;;;;;;41.00;18.00;;;17.90;99.90;;;;;;4982397;28;20236;-68
2023/10/10 08:33:14;;;;;;;37.80;17.93;;;18.00;99.90;;;;;;4976992;28;20188;-69
2023/10/10 08:35:39;;;;;;;41.90;18.60;;;18.10;99.90;;;;;;4991473;28;20186;-69
2023/10/10 08:38:05;;;;;;;44.50;17.80;;;18.20;99.90;;;;;;4972051;28;20263;-69
2023/10/10 08:40:34;;;;;;;39.03;18.87;;;18.30;99.90;;;;;;4986922;28;20178;-68
2023/10/10 08:43:03;;;;;;;40.00;17.13;;;18.60;99.90;;;;;;4980331;28;20212;-69
2023/10/10 08:45:39;;;;;;;40.93;19.33;;;18.70;99.90;;;;;;4978679;28;20187;-69
2023/10/10 08:48:12;;;;;;;38.23;16.83;;;19.00;99.90;;;;;;4975321;28;20199;-69
2023/10/10 08:50:41;;;;;;;32.80;15.97;;;19.40;99.90;;;;;;4982289;28;20178;-68
2023/10/10 08:53:13;;;;;;;36.00;17.47;;;19.70;99.90;;;;;;4975703;28;20267;-68
2023/10/10 08:55:40;;;;;;;37.80;16.97;;;19.90;99.90;;;;;;4991343;28;20205;-68
2023/10/10 08:58:18;;;;;;;41.97;18.20;;;19.90;99.90;;;;;;4979653;28;20190;-69
2023/10/10 09:00:44;;;;;;;44.97;18.03;;;20.10;99.90;;;;;;4970741;28;20665;-68
2023/10/10 09:03:09;;;;;;;39.27;18.23;;;20.10;99.90;;;;;;4982983;28;20205;-68
2023/10/10 09:05:36;;;;;;;45.67;18.63;;;20.30;99.90;;;;;;4983137;28;20196;-69
2023/10/10 09:08:16;;;;;;;42.63;19.63;;;20.50;99.90;;;;;;4974626;28;20212;-68
2023/10/10 09:10:53;;;;;;;37.63;17.90;;;20.40;99.90;;;;;;4982964;28;20272;-68
2023/10/10 09:13:19;;;;;;;44.87;19.87;;;20.60;99.90;;;;;;4985817;28;20177;-68
2023/10/10 09:15:54;;;;;;;37.23;17.57;;;20.60;99.90;;;;;;4971825;28;20537;-68
2023/10/10 09:18:25;;;;;;;36.20;16.90;;;20.50;99.90;;;;;;4985181;28;20224;-69
2023/10/10 09:20:53;;;;;;;36.97;16.73;;;20.60;99.90;;;;;;4987182;28;20192;-68
2023/10/10 09:23:26;;;;;;;37.40;16.53;;;20.80;99.90;;;;;;4984573;28;20594;-68
2023/10/10 09:26:19;;;;;;;40.57;17.43;;;20.80;99.90;;;;;;4980939;28;20185;-69
2023/10/10 09:28:49;;;;;;;39.37;17.10;;;20.90;99.90;;;;;;4978905;28;20193;-68
2023/10/10 09:31:26;;;;;;;40.17;18.60;;;21.20;99.90;;;;;;4975836;28;20679;-68
2023/10/10 09:33:56;;;;;;;38.73;17.73;;;21.10;99.90;;;;;;4988858;28;20235;-68
2023/10/10 09:36:26;;;;;;;41.37;16.60;;;21.30;99.90;;;;;;4969892;28;20174;-68
2023/10/10 09:39:08;;;;;;;40.40;18.90;;;21.60;99.90;;;;;;4988342;28;20297;-69
2023/10/10 09:49:29;;;;;;;34.83;15.10;;;22.00;99.90;;;;;;4970767;28;20244;-66
2023/10/10 09:54:26;;;;;;;34.77;16.33;;;22.30;99.90;;;;;;4976914;28;20265;-67
2023/10/10 09:56:53;;;;;;;35.70;15.30;;;22.40;99.90;;;;;;4970772;28;20191;-66
2023/10/10 09:59:20;;;;;;;29.30;14.80;;;22.70;99.90;;;;;;4975916;28;20216;-69
2023/10/10 10:01:47;;;;;;;31.43;13.47;;;22.70;99.90;;;;;;4981394;28;20416;-67
2023/10/10 10:04:18;;;;;;;25.27;12.30;;;23.00;99.90;;;;;;4983089;28;20662;-66
2023/10/10 10:06:52;;;;;;;23.20;12.20;;;23.10;99.90;;;;;;4989530;28;20198;-67
2023/10/10 10:09:46;;;;;;;28.40;12.93;;;23.20;99.90;;;;;;4978582;28;20187;-67
2023/10/10 10:12:52;;;;;;;29.47;11.83;;;23.30;99.90;;;;;;4975156;28;20487;-66
2023/10/10 10:15:52;;;;;;;25.47;11.07;;;23.40;99.90;;;;;;4982278;28;20175;-67
2023/10/10 10:18:27;;;;;;;21.20;11.23;;;23.80;99.90;;;;;;4982019;28;20196;-67
2023/10/10 10:21:12;;;;;;;22.07;9.43;;;24.10;99.90;;;;;;4989800;28;20675;-67
2023/10/10 10:23:45;;;;;;;19.43;9.83;;;24.30;99.90;;;;;;4990143;28;20263;-66
2023/10/10 10:26:11;;;;;;;22.57;8.53;;;24.00;99.90;;;;;;4982874;28;20264;-67
2023/10/10 10:28:43;;;;;;;18.33;7.67;;;24.30;99.90;;;;;;4976331;28;20265;-68
2023/10/10 10:31:16;;;;;;;12.00;6.57;;;24.70;99.90;;;;;;4986240;28;20664;-68
2023/10/10 10:34:05;;;;;;;13.23;6.17;;;24.70;99.90;;;;;;4985779;28;20173;-71
2023/10/10 10:36:54;;;;;;;16.57;5.70;;;24.80;99.90;;;;;;4994093;28;20592;-69
2023/10/10 10:49:54;;;;;;;12.77;5.00;;;24.30;99.90;;;;;;5980501;23;20261;-72
2023/10/10 10:52:58;;;;;;;11.23;5.07;;;23.90;99.90;;;;;;4965861;28;20706;-73
2023/10/10 10:55:28;;;;;;;7.70;4.13;;;23.40;99.90;;;;;;4948832;28;20252;-72
2023/10/10 11:01:00;;;;;;;10.73;4.93;;;23.50;99.90;;;;;;4954917;28;20837;-72
2023/10/10 11:03:35;;;;;;;10.47;4.23;;;23.60;99.90;;;;;;4953189;28;20243;-74
2023/10/10 11:06:06;;;;;;;10.50;4.40;;;23.80;99.90;;;;;;4955833;28;20178;-73
2023/10/10 11:14:01;;;;;;;10.03;4.33;;;23.60;99.90;;;;;;4969318;28;20190;-70
2023/10/10 11:16:37;;;;;;;9.20;4.20;;;23.60;99.90;;;;;;4956287;28;20192;-72
2023/10/10 11:19:12;;;;;;;19.67;9.73;;;23.80;99.90;;;;;;4954414;28;20181;-72
2023/10/10 11:21:47;;;;;;;11.07;4.57;;;23.80;99.90;;;;;;4954283;28;20218;-76
2023/10/10 11:24:14;;;;;;;10.43;4.27;;;24.00;99.90;;;;;;4953976;28;20245;-74
2023/10/10 11:26:40;;;;;;;11.30;4.80;;;24.00;99.90;;;;;;4960393;28;20267;-74
2023/10/10 11:29:29;;;;;;;9.20;4.40;;;23.90;99.90;;;;;;4955012;28;20542;-73
2023/10/10 11:32:08;;;;;;;12.10;4.10;;;23.90;99.90;;;;;;4950393;28;20186;-76
2023/10/10 11:34:43;;;;;;;11.47;4.53;;;23.90;99.90;;;;;;4953850;28;20186;-73
2023/10/10 11:37:17;;;;;;;11.73;4.20;;;23.90;99.90;;;;;;4955395;28;20218;-71
2023/10/10 11:39:57;;;;;;;12.43;4.17;;;24.00;99.90;;;;;;4963672;28;20187;-70
2023/10/10 11:42:33;;;;;;;14.30;4.60;;;24.00;99.90;;;;;;4952153;28;20313;-69
2023/10/10 11:45:17;;;;;;;10.07;4.17;;;24.00;99.90;;;;;;4953597;28;20547;-70
2023/10/10 11:47:44;;;;;;;12.57;4.73;;;24.00;99.90;;;;;;4948580;28;20923;-74
2023/10/10 11:50:15;;;;;;;10.50;4.30;;;23.80;99.90;;;;;;4952769;28;20277;-72
2023/10/10 11:52:53;;;;;;;9.67;4.10;;;23.60;99.90;;;;;;4953377;28;20185;-71
2023/10/10 11:55:23;;;;;;;11.57;4.47;;;23.80;99.90;;;;;;4947900;28;20184;-70
2023/10/10 11:57:50;;;;;;;13.63;5.03;;;24.00;99.90;;;;;;4972444;28;20180;-70
2023/10/10 12:00:22;;;;;;;16.53;4.67;;;24.10;99.90;;;;;;4953643;28;20796;-70
2023/10/10 12:02:50;;;;;;;9.53;4.40;;;24.10;99.90;;;;;;4961390;28;20548;-70
2023/10/10 12:07:53;;;;;;;12.13;4.50;;;24.30;99.90;;;;;;4961767;28;20267;-70
2023/10/10 12:10:21;;;;;;;14.20;4.60;;;24.20;99.90;;;;;;4969123;28;20193;-70
2023/10/10 12:12:49;;;;;;;15.33;5.07;;;24.20;99.90;;;;;;4953717;28;20648;-70
2023/10/10 12:15:19;;;;;;;18.60;4.97;;;24.30;99.90;;;;;;4961337;28;20194;-70
2023/10/10 12:17:45;;;;;;;13.40;4.67;;;24.30;99.90;;;;;;4961746;28;20174;-70
2023/10/10 12:20:10;;;;;;;13.13;4.93;;;24.50;99.90;;;;;;4969010;28;20209;-70
2023/10/10 12:22:38;;;;;;;12.70;4.77;;;24.70;99.90;;;;;;4958856;28;20182;-69
2023/10/10 12:25:04;;;;;;;11.20;4.40;;;24.90;99.90;;;;;;4955108;28;20660;-70
2023/10/10 12:27:30;;;;;;;10.47;4.23;;;25.20;99.90;;;;;;4953280;28;20747;-70
2023/10/10 12:29:58;;;;;;;9.07;4.40;;;25.50;99.90;;;;;;4953064;28;20230;-70
2023/10/10 12:32:26;;;;;;;7.77;4.20;;;25.60;99.90;;;;;;4968312;28;20186;-70
2023/10/10 12:34:52;;;;;;;7.60;4.13;;;25.80;99.90;;;;;;4961032;28;20194;-70
2023/10/10 12:37:18;;;;;;;11.47;4.27;;;25.90;99.90;;;;;;4956443;28;20182;-70
2023/10/10 12:39:44;;;;;;;10.67;4.20;;;25.80;99.90;;;;;;4957088;28;20176;-70
2023/10/10 12:42:10;;;;;;;11.53;4.27;;;25.80;99.90;;;;;;4963198;28;20188;-70
2023/10/10 12:44:36;;;;;;;12.87;4.37;;;25.90;99.90;;;;;;4958611;28;20195;-70
2023/10/10 12:47:06;;;;;;;9.53;4.00;;;26.10;99.90;;;;;;4961883;28;20232;-70
2023/10/10 12:49:36;;;;;;;10.43;3.97;;;26.40;99.90;;;;;;4967042;28;20238;-70
2023/10/10 12:52:11;;;;;;;17.43;3.87;;;26.60;99.90;;;;;;4969421;28;20690;-70
2023/10/10 12:54:37;;;;;;;12.20;4.07;;;26.90;99.90;;;;;;4963859;28;20174;-70
2023/10/10 12:57:06;;;;;;;9.50;3.93;;;27.20;99.90;;;;;;4963901;28;20193;-69
2023/10/10 12:59:35;;;;;;;8.07;3.73;;;27.30;99.90;;;;;;4964022;28;20181;-69
2023/10/10 13:02:03;;;;;;;12.37;3.70;;;27.30;99.90;;;;;;4963832;28;20276;-69
2023/10/10 13:04:31;;;;;;;7.83;3.90;;;27.30;99.90;;;;;;4959185;28;20303;-70
2023/10/10 13:07:02;;;;;;;9.77;3.90;;;27.50;99.90;;;;;;4952948;28;20174;-70
2023/10/10 13:09:29;;;;;;;12.87;4.40;;;27.40;99.90;;;;;;4958892;28;20186;-69
2023/10/10 13:11:56;;;;;;;12.63;4.23;;;27.40;99.90;;;;;;4960100;28;20231;-71
2023/10/10 13:14:24;;;;;;;9.77;4.20;;;27.50;99.90;;;;;;4964222;28;20225;-69
2023/10/10 13:16:53;;;;;;;6.13;3.13;;;27.60;99.90;;;;;;4963685;28;20269;-69
2023/10/10 13:19:20;;;;;;;8.90;3.70;;;27.70;99.90;;;;;;4959980;28;20180;-69
2023/10/10 13:21:53;;;;;;;10.37;3.37;;;27.70;99.90;;;;;;4960331;28;20195;-69
2023/10/10 13:24:20;;;;;;;7.33;3.60;;;27.70;99.90;;;;;;4955662;28;20206;-69
2023/10/10 13:26:49;;;;;;;9.43;4.30;;;27.80;99.90;;;;;;4964093;28;20174;-69
2023/10/10 13:29:16;;;;;;;10.23;3.77;;;27.80;99.90;;;;;;4963301;28;20329;-70
2023/10/10 13:31:44;;;;;;;8.13;3.60;;;27.80;99.90;;;;;;4963749;28;20202;-69
2023/10/10 13:34:10;;;;;;;8.00;3.97;;;27.90;99.90;;;;;;4956045;28;20183;-69
2023/10/10 13:36:36;;;;;;;7.30;3.63;;;28.10;99.90;;;;;;4963705;28;20175;-69
2023/10/10 13:39:07;;;;;;;23.47;4.20;;;28.10;99.90;;;;;;4959884;28;20261;-69
2023/10/10 13:41:36;;;;;;;11.20;4.10;;;28.10;99.90;;;;;;4964932;28;20206;-69
2023/10/10 13:44:03;;;;;;;22.27;5.07;;;27.90;99.90;;;;;;4953327;28;20604;-70
2023/10/10 13:46:37;;;;;;;7.67;3.60;;;27.90;99.90;;;;;;4955491;28;20211;-70
2023/10/10 13:49:04;;;;;;;10.30;3.97;;;27.90;99.90;;;;;;4953798;28;20211;-69
2023/10/10 13:51:37;;;;;;;14.27;3.83;;;27.80;99.90;;;;;;4959776;28;20558;-69
2023/10/10 13:54:03;;;;;;;10.60;4.33;;;27.70;99.90;;;;;;4967824;28;20194;-70
2023/10/10 13:56:30;;;;;;;7.97;3.57;;;27.70;99.90;;;;;;4951773;28;20414;-70
2023/10/10 13:59:00;;;;;;;38.27;5.60;;;27.70;99.90;;;;;;4958686;28;20274;-70
2023/10/10 14:01:29;;;;;;;11.57;3.60;;;27.60;99.90;;;;;;4965153;28;20206;-69
2023/10/10 14:04:24;;;;;;;11.40;3.73;;;27.60;99.90;;;;;;4958650;28;20284;-69
2023/10/10 14:06:48;;;;;;;11.50;4.00;;;27.30;99.90;;;;;;4962996;28;20277;-70
2023/10/10 14:09:24;;;;;;;9.90;4.17;;;27.40;99.90;;;;;;4968004;28;20559;-69
2023/10/10 14:12:01;;;;;;;11.73;4.10;;;27.40;99.90;;;;;;4944724;28;20258;-69
2023/10/10 14:14:27;;;;;;;7.13;3.47;;;27.40;99.90;;;;;;4944731;28;20587;-69
2023/10/10 14:16:52;;;;;;;9.07;3.83;;;27.50;99.90;;;;;;4966141;28;20273;-70
2023/10/10 14:19:18;;;;;;;8.33;3.40;;;27.30;99.90;;;;;;4954647;28;20285;-70
2023/10/10 14:21:44;;;;;;;8.20;3.80;;;27.40;99.90;;;;;;4964291;28;20203;-69
2023/10/10 14:24:12;;;;;;;8.57;3.73;;;27.40;99.90;;;;;;4959808;28;20209;-70
2023/10/10 14:26:43;;;;;;;11.00;3.40;;;27.50;99.90;;;;;;4970870;28;20189;-69
2023/10/10 14:29:12;;;;;;;9.20;3.40;;;27.40;99.90;;;;;;4954329;28;20183;-69
2023/10/10 14:31:42;;;;;;;12.60;3.80;;;27.40;99.90;;;;;;4970538;28;20298;-70
2023/10/10 14:34:08;;;;;;;9.77;3.67;;;27.50;99.90;;;;;;4959554;28;20248;-70
2023/10/10 14:36:39;;;;;;;11.10;3.87;;;27.40;99.90;;;;;;4956854;28;20186;-70
2023/10/10 14:39:08;;;;;;;16.90;3.80;;;27.30;99.90;;;;;;4970424;28;20197;-69
2023/10/10 14:41:34;;;;;;;17.57;3.70;;;27.30;99.90;;;;;;4957536;28;20278;-69
2023/10/10 14:44:00;;;;;;;9.33;3.37;;;27.20;99.90;;;;;;4959927;28;20202;-69
2023/10/10 14:46:33;;;;;;;9.67;3.60;;;27.20;99.90;;;;;;4966247;28;20188;-68
2023/10/10 14:49:01;;;;;;;8.63;3.80;;;27.20;99.90;;;;;;4967077;28;20277;-68
2023/10/10 14:51:33;;;;;;;9.87;4.00;;;27.20;99.90;;;;;;4963373;28;20217;-68
2023/10/10 14:54:05;;;;;;;10.73;3.43;;;27.10;99.90;;;;;;4962552;28;20333;-68
2023/10/10 14:56:35;;;;;;;8.37;3.30;;;27.10;99.90;;;;;;4958092;28;20182;-69
2023/10/10 14:59:06;;;;;;;7.53;3.23;;;27.00;99.90;;;;;;4951060;28;20277;-70
2023/10/10 15:01:35;;;;;;;8.87;3.20;;;26.90;99.90;;;;;;4956212;28;20681;-70
2023/10/10 15:04:03;;;;;;;8.90;3.43;;;26.90;99.90;;;;;;4970278;28;20685;-69
2023/10/10 15:06:29;;;;;;;12.23;4.40;;;26.80;99.90;;;;;;4964765;28;20265;-68
2023/10/10 15:08:55;;;;;;;10.20;3.83;;;26.60;99.90;;;;;;4959112;28;20197;-70
2023/10/10 15:11:23;;;;;;;11.63;3.40;;;26.60;99.90;;;;;;4950825;28;20313;-69
2023/10/10 15:13:49;;;;;;;10.37;3.43;;;26.40;99.90;;;;;;4959507;28;20246;-70
2023/10/10 15:16:16;;;;;;;24.10;4.00;;;26.20;99.90;;;;;;4965056;28;20280;-69
2023/10/10 15:18:41;;;;;;;10.60;3.83;;;25.90;99.90;;;;;;4964446;28;20237;-70
2023/10/10 15:21:07;;;;;;;10.17;3.47;;;25.70;99.90;;;;;;4955648;28;20310;-70
2023/10/10 15:23:32;;;;;;;9.60;2.90;;;25.40;99.90;;;;;;4954490;28;20265;-72
2023/10/10 15:26:17;;;;;;;10.10;3.10;;;25.10;99.90;;;;;;4953959;28;20705;-74
2023/10/10 15:28:42;;;;;;;11.33;3.37;;;24.80;99.90;;;;;;4954637;28;20661;-70
2023/10/10 15:31:08;;;;;;;9.53;4.00;;;24.60;99.90;;;;;;4954611;28;20273;-76
2023/10/10 15:33:34;;;;;;;12.10;3.67;;;24.30;99.90;;;;;;4953132;28;20645;-70
2023/10/10 15:36:04;;;;;;;11.20;4.20;;;24.20;99.90;;;;;;4953972;28;20249;-72
2023/10/10 15:38:30;;;;;;;12.97;3.80;;;24.00;99.90;;;;;;4958786;28;20658;-73
2023/10/10 15:40:56;;;;;;;8.63;3.80;;;23.80;99.90;;;;;;4954069;28;20220;-70
2023/10/10 15:43:22;;;;;;;11.23;3.50;;;23.70;99.90;;;;;;4954167;28;20217;-71
2023/10/10 15:45:47;;;;;;;10.63;3.60;;;23.60;99.90;;;;;;4954580;28;20673;-72